createdAt,value
2018-08-24T00:00:34.179Z,17.30
2018-08-24T00:03:06.193Z,17.60
2018-08-24T00:05:36.570Z,16.27
2018-08-24T00:08:06.696Z,16.13
2018-08-24T00:10:36.161Z,18.87
2018-08-24T00:13:05.959Z,20.23
2018-08-24T00:15:36.323Z,19.53
2018-08-24T00:18:05.825Z,17.47
2018-08-24T00:20:36.038Z,18.83
2018-08-24T00:23:06.273Z,18.70
2018-08-24T00:25:35.826Z,18.50
2018-08-24T00:28:06.094Z,18.27
2018-08-24T00:30:35.634Z,18.70
2018-08-24T00:33:05.193Z,20.10
2018-08-24T00:35:35.155Z,19.23
2018-08-24T00:38:05.463Z,19.47
2018-08-24T00:40:35.830Z,18.87
2018-08-24T00:43:05.390Z,19.27
2018-08-24T00:45:34.849Z,20.00
2018-08-24T00:48:04.743Z,20.17
2018-08-24T00:50:34.993Z,18.13
2018-08-24T00:53:05.520Z,18.40
2018-08-24T00:55:35.449Z,20.00
2018-08-24T00:58:05.696Z,20.00
2018-08-24T01:00:42.484Z,19.97
2018-08-24T01:03:14.182Z,19.27
2018-08-24T01:05:45.347Z,20.17
2018-08-24T01:08:15.343Z,19.40
2018-08-24T01:10:44.813Z,21.10
2018-08-24T01:13:14.814Z,21.60
2018-08-24T01:16:07.309Z,20.50
2018-08-24T01:18:42.613Z,21.93
2018-08-24T01:21:12.068Z,20.60
2018-08-24T01:23:41.917Z,18.60
2018-08-24T01:26:11.445Z,19.70
2018-08-24T01:28:41.203Z,17.60
2018-08-24T01:31:11.497Z,21.20
2018-08-24T01:33:41.305Z,17.87
2018-08-24T01:36:11.201Z,21.03
2018-08-24T01:38:42.056Z,20.10
2018-08-24T01:41:11.618Z,19.30
2018-08-24T01:43:41.089Z,20.30
2018-08-24T01:46:12.106Z,20.80
2018-08-24T01:48:42.691Z,19.20
2018-08-24T01:51:16.601Z,20.07
2018-08-24T01:53:46.231Z,19.40
2018-08-24T01:56:15.694Z,22.77
2018-08-24T01:58:45.314Z,19.57
2018-08-24T02:01:15.022Z,21.63
2018-08-24T02:03:44.673Z,20.17
2018-08-24T02:06:14.320Z,21.27
2018-08-24T02:08:43.827Z,20.10
2018-08-24T02:11:18.420Z,20.27
2018-08-24T02:13:53.082Z,19.80
2018-08-24T02:16:22.741Z,23.20
2018-08-24T02:19:58.917Z,23.73
2018-08-24T02:22:29.221Z,21.50
2018-08-24T02:24:58.856Z,16.83
2018-08-24T02:27:28.793Z,14.77
2018-08-24T02:29:58.810Z,8.50
2018-08-24T02:32:28.391Z,3.93
2018-08-24T02:34:59.887Z,3.43
2018-08-24T02:37:30.924Z,2.60
2018-08-24T02:40:00.561Z,2.33
2018-08-24T02:42:30.623Z,3.00
2018-08-24T02:45:00.187Z,2.40
2018-08-24T02:47:29.670Z,3.07
2018-08-24T02:49:59.430Z,2.47
2018-08-24T02:52:29.367Z,3.53
2018-08-24T02:54:59.362Z,3.97
2018-08-24T02:57:28.880Z,3.27
2018-08-24T02:59:58.571Z,3.47
2018-08-24T03:02:29.768Z,3.93
2018-08-24T03:04:59.814Z,3.73
2018-08-24T03:07:29.510Z,3.23
2018-08-24T03:09:59.006Z,3.03
2018-08-24T03:12:28.467Z,3.10
2018-08-24T03:15:04.406Z,2.47
2018-08-24T03:17:41.070Z,3.70
2018-08-24T03:20:10.750Z,3.13
2018-08-24T03:22:40.636Z,3.60
2018-08-24T03:25:23.839Z,3.80
2018-08-24T03:27:53.456Z,4.00
2018-08-24T03:30:23.143Z,3.93
2018-08-24T03:32:53.112Z,4.10
2018-08-24T03:35:22.758Z,3.63
2018-08-24T03:37:52.217Z,4.27
2018-08-24T03:40:21.799Z,3.33
2018-08-24T03:42:51.334Z,3.90
2018-08-24T03:45:21.078Z,4.50
2018-08-24T03:47:50.763Z,5.23
2018-08-24T03:50:20.226Z,5.17
2018-08-24T03:52:50.948Z,6.00
2018-08-24T03:55:22.200Z,5.20
2018-08-24T03:57:51.765Z,6.20
2018-08-24T04:00:21.331Z,6.10
2018-08-24T04:02:52.204Z,6.63
2018-08-24T04:05:22.552Z,7.27
2018-08-24T04:07:53.131Z,7.77
2018-08-24T04:10:25.604Z,7.60
2018-08-24T04:15:50.523Z,8.60
2018-08-24T04:18:20.200Z,7.83
2018-08-24T04:20:50.423Z,9.77
2018-08-24T04:23:21.398Z,9.60
2018-08-24T04:25:52.194Z,9.63
2018-08-24T04:28:27.432Z,9.47
2018-08-24T04:30:57.343Z,7.80
2018-08-24T04:33:27.920Z,9.00
2018-08-24T04:35:59.678Z,7.57
2018-08-24T04:38:29.647Z,7.10
2018-08-24T04:40:59.320Z,6.90
2018-08-24T04:43:29.632Z,6.00
2018-08-24T04:45:59.187Z,7.37
2018-08-24T04:48:30.984Z,7.73
2018-08-24T04:51:01.781Z,8.07
2018-08-24T04:53:31.361Z,8.40
2018-08-24T04:56:01.734Z,8.30
2018-08-24T04:58:31.473Z,9.53
2018-08-24T05:01:35.512Z,8.77
2018-08-24T05:04:05.206Z,9.37
2018-08-24T05:06:35.349Z,8.77
2018-08-24T05:09:10.862Z,8.17
2018-08-24T05:11:42.091Z,6.70
2018-08-24T05:14:12.927Z,6.70
2018-08-24T05:16:42.483Z,5.93
2018-08-24T05:19:13.473Z,6.03
2018-08-24T05:21:44.379Z,6.00
2018-08-24T05:24:13.941Z,6.03
2018-08-24T05:26:44.430Z,6.50
2018-08-24T05:29:14.134Z,5.87
2018-08-24T05:31:43.911Z,7.53
2018-08-24T05:34:13.970Z,7.40
2018-08-24T05:36:45.205Z,6.37
2018-08-24T05:39:14.936Z,6.17
2018-08-24T05:41:45.602Z,5.90
2018-08-24T05:44:15.193Z,5.80
2018-08-24T05:46:45.790Z,5.57
2018-08-24T05:49:49.166Z,6.10
2018-08-24T05:52:18.870Z,4.50
2018-08-24T05:54:50.089Z,5.53
2018-08-24T05:57:20.143Z,5.30
2018-08-24T05:59:50.752Z,4.30
2018-08-24T06:02:21.672Z,4.90
2018-08-24T06:04:52.377Z,4.83
2018-08-24T06:07:21.902Z,4.50
2018-08-24T06:09:52.958Z,4.43
2018-08-24T06:12:22.467Z,4.37
2018-08-24T06:14:52.390Z,4.37
2018-08-24T06:17:27.726Z,4.03
2018-08-24T06:19:57.745Z,4.57
2018-08-24T06:22:27.714Z,5.40
2018-08-24T06:24:57.238Z,4.50
2018-08-24T06:27:29.454Z,4.30
2018-08-24T06:29:59.067Z,4.77
2018-08-24T06:32:28.595Z,4.60
2018-08-24T06:34:58.142Z,4.93
2018-08-24T06:37:27.714Z,6.13
2018-08-24T06:39:57.369Z,5.90
2018-08-24T06:42:27.658Z,5.70
2018-08-24T06:44:57.167Z,6.33
2018-08-24T06:47:27.494Z,6.00
2018-08-24T06:49:56.910Z,5.37
2018-08-24T06:52:27.061Z,6.67
2018-08-24T06:54:56.887Z,6.10
2018-08-24T06:57:27.310Z,5.80
2018-08-24T06:59:57.771Z,7.10
2018-08-24T07:02:27.417Z,6.20
2018-08-24T07:04:57.861Z,6.13
2018-08-24T07:07:29.543Z,5.93
2018-08-24T07:10:00.149Z,6.67
2018-08-24T07:12:30.231Z,6.43
2018-08-24T07:14:59.901Z,6.90
2018-08-24T07:17:35.661Z,7.20
2018-08-24T07:20:05.242Z,6.87
2018-08-24T07:22:34.675Z,6.57
2018-08-24T07:25:04.302Z,7.43
2018-08-24T07:27:33.720Z,7.00
2018-08-24T07:30:03.366Z,6.63
2018-08-24T07:32:33.874Z,7.90
2018-08-24T07:35:03.661Z,7.13
2018-08-24T07:37:34.860Z,8.00
2018-08-24T07:40:05.059Z,7.17
2018-08-24T07:42:38.175Z,7.50
2018-08-24T07:45:07.672Z,7.10
2018-08-24T07:47:38.585Z,8.43
2018-08-24T07:50:08.707Z,7.93
2018-08-24T07:52:38.303Z,8.17
2018-08-24T07:55:08.951Z,8.23
2018-08-24T07:57:39.754Z,7.87
2018-08-24T08:00:10.053Z,7.60
2018-08-24T08:02:50.447Z,8.53
2018-08-24T08:05:21.383Z,8.13
2018-08-24T08:07:51.652Z,8.10
2018-08-24T08:10:21.191Z,8.10
2018-08-24T08:12:51.421Z,8.23
2018-08-24T08:15:22.062Z,8.23
2018-08-24T08:17:53.084Z,8.70
2018-08-24T08:20:23.077Z,8.90
2018-08-24T08:22:52.667Z,9.40
2018-08-24T08:25:22.601Z,9.27
2018-08-24T08:27:53.170Z,8.23
2018-08-24T08:30:29.830Z,8.67
2018-08-24T08:32:59.265Z,8.30
2018-08-24T08:35:30.102Z,8.50
2018-08-24T08:38:00.619Z,8.20
2018-08-24T08:40:30.954Z,8.43
2018-08-24T08:43:01.066Z,7.90
2018-08-24T08:45:31.365Z,8.40
2018-08-24T08:48:00.801Z,8.80
2018-08-24T08:50:37.171Z,8.20
2018-08-24T08:53:06.794Z,8.03
2018-08-24T08:55:37.666Z,8.10
2018-08-24T08:58:07.921Z,8.20
2018-08-24T09:00:37.477Z,7.40
2018-08-24T09:03:07.074Z,7.67
2018-08-24T09:05:36.639Z,8.07
2018-08-24T09:08:06.195Z,6.80
2018-08-24T09:10:35.929Z,7.93
2018-08-24T09:13:05.634Z,7.13
2018-08-24T09:15:37.926Z,7.50
2018-08-24T09:18:12.937Z,6.73
2018-08-24T09:20:48.199Z,7.90
2018-08-24T09:23:22.841Z,7.20
2018-08-24T09:25:57.602Z,6.83
2018-08-24T09:28:37.162Z,6.60
2018-08-24T09:31:44.081Z,7.87
2018-08-24T09:34:14.556Z,7.47
2018-08-24T09:36:44.611Z,7.87
2018-08-24T09:39:14.209Z,7.37
2018-08-24T09:41:43.921Z,8.23
2018-08-24T09:44:13.666Z,7.60
2018-08-24T09:46:51.051Z,7.80
2018-08-24T09:49:29.173Z,8.07
2018-08-24T09:51:59.221Z,8.87
2018-08-24T09:54:29.230Z,7.47
2018-08-24T09:56:59.553Z,7.30
2018-08-24T09:59:29.088Z,7.70
2018-08-24T10:02:04.473Z,7.93
2018-08-24T10:04:39.921Z,6.53
2018-08-24T10:07:14.662Z,6.30
2018-08-24T10:09:44.117Z,8.10
2018-08-24T10:12:13.556Z,7.50
2018-08-24T10:14:43.829Z,7.90
2018-08-24T10:17:13.879Z,7.40
2018-08-24T10:19:43.415Z,6.90
2018-08-24T10:22:12.973Z,7.23
2018-08-24T10:24:42.654Z,7.23
2018-08-24T10:27:12.233Z,6.57
2018-08-24T10:29:41.855Z,6.73
2018-08-24T10:32:11.841Z,6.47
2018-08-24T10:34:42.353Z,6.33
2018-08-24T10:37:12.395Z,5.83
2018-08-24T10:39:42.278Z,5.80
2018-08-24T10:42:11.758Z,6.03
2018-08-24T10:44:41.321Z,5.93
2018-08-24T10:47:11.157Z,5.90
2018-08-24T10:49:41.676Z,5.50
2018-08-24T10:52:11.263Z,4.90
2018-08-24T10:54:41.060Z,4.73
2018-08-24T10:57:10.689Z,5.00
2018-08-24T10:59:40.333Z,5.27
2018-08-24T11:02:10.055Z,4.87
2018-08-24T11:04:41.172Z,4.90
2018-08-24T11:07:10.781Z,4.40
2018-08-24T11:09:44.352Z,4.70
2018-08-24T11:12:16.037Z,3.20
2018-08-24T11:14:46.065Z,4.33
2018-08-24T11:17:16.294Z,4.33
2018-08-24T11:19:46.159Z,4.73
2018-08-24T11:22:15.843Z,3.43
2018-08-24T11:24:47.110Z,4.00
2018-08-24T11:27:16.603Z,2.87
2018-08-24T11:29:47.128Z,3.20
2018-08-24T11:32:17.330Z,3.23
2018-08-24T11:34:46.797Z,2.47
2018-08-24T11:37:17.773Z,2.80
2018-08-24T11:39:48.402Z,2.50
2018-08-24T11:42:17.942Z,3.37
2018-08-24T11:44:48.834Z,2.40
2018-08-24T11:47:20.945Z,2.63
2018-08-24T11:49:52.957Z,3.43
2018-08-24T11:52:22.992Z,2.80
2018-08-24T11:54:53.602Z,2.97
2018-08-24T11:57:23.582Z,3.57
2018-08-24T11:59:53.220Z,3.30
2018-08-24T12:02:23.402Z,3.90
2018-08-24T12:04:56.132Z,2.30
2018-08-24T12:07:27.932Z,2.57
2018-08-24T12:09:58.079Z,2.87
2018-08-24T12:12:29.616Z,2.10
2018-08-24T12:15:00.479Z,2.63
2018-08-24T12:17:33.828Z,2.30
2018-08-24T12:20:03.943Z,2.00
2018-08-24T12:22:34.007Z,1.80
2018-08-24T12:25:03.917Z,2.20
2018-08-24T12:27:33.895Z,2.30
2018-08-24T12:30:04.976Z,2.53
2018-08-24T12:32:36.288Z,1.80
2018-08-24T12:35:06.428Z,1.73
2018-08-24T12:37:45.539Z,1.97
2018-08-24T12:40:15.805Z,1.40
2018-08-24T12:42:45.698Z,1.50
2018-08-24T12:45:15.303Z,1.67
2018-08-24T12:47:44.958Z,1.53
2018-08-24T12:50:14.482Z,1.87
2018-08-24T12:52:43.966Z,1.80
2018-08-24T12:55:15.196Z,1.60
2018-08-24T12:57:45.625Z,1.43
2018-08-24T13:00:15.355Z,1.30
2018-08-24T13:02:46.002Z,1.27
2018-08-24T13:05:15.907Z,1.47
2018-08-24T13:07:47.665Z,1.43
2018-08-24T13:10:17.470Z,1.23
2018-08-24T13:12:47.020Z,1.53
2018-08-24T13:15:16.967Z,2.00
2018-08-24T13:17:46.566Z,1.20
2018-08-24T13:20:16.050Z,1.50
2018-08-24T13:22:46.049Z,1.43
2018-08-24T13:25:15.608Z,1.77
2018-08-24T13:27:46.826Z,1.10
2018-08-24T13:30:18.409Z,1.57
2018-08-24T13:32:48.497Z,0.97
2018-08-24T13:35:18.150Z,1.57
2018-08-24T13:37:48.314Z,1.10
2018-08-24T13:40:18.328Z,1.40
2018-08-24T13:42:48.117Z,0.97
2018-08-24T13:45:17.802Z,1.33
2018-08-24T13:47:49.339Z,1.23
2018-08-24T13:50:20.442Z,1.07
2018-08-24T13:52:51.687Z,0.93
2018-08-24T13:55:21.219Z,1.30
2018-08-24T13:57:51.553Z,0.87
2018-08-24T14:00:21.492Z,1.07
2018-08-24T14:02:53.047Z,1.37
2018-08-24T14:05:23.220Z,1.00
2018-08-24T14:07:52.860Z,1.17
2018-08-24T14:10:22.485Z,0.87
2018-08-24T14:12:52.041Z,1.10
2018-08-24T14:15:21.570Z,1.07
2018-08-24T14:17:52.699Z,1.20
2018-08-24T14:20:23.812Z,1.00
2018-08-24T14:22:56.028Z,1.33
2018-08-24T14:25:25.604Z,1.20
2018-08-24T14:27:56.656Z,1.27
2018-08-24T14:30:26.254Z,1.50
2018-08-24T14:32:55.750Z,1.60
2018-08-24T14:35:25.574Z,1.13
2018-08-24T14:37:55.221Z,1.33
2018-08-24T14:40:30.422Z,1.33
2018-08-24T14:43:00.224Z,1.57
2018-08-24T14:45:29.808Z,1.30
2018-08-24T14:48:00.753Z,1.13
2018-08-24T14:50:30.990Z,1.37
2018-08-24T14:53:01.216Z,1.40
2018-08-24T14:55:30.904Z,1.43
2018-08-24T14:58:01.092Z,1.40
2018-08-24T15:00:32.196Z,1.77
2018-08-24T15:03:01.730Z,1.07
2018-08-24T15:05:33.333Z,1.03
2018-08-24T15:08:02.872Z,1.77
2018-08-24T15:10:32.885Z,1.67
2018-08-24T15:13:03.285Z,1.67
2018-08-24T15:15:33.910Z,1.80
2018-08-24T15:18:04.533Z,1.20
2018-08-24T15:20:34.094Z,1.60
2018-08-24T15:23:03.610Z,1.10
2018-08-24T15:25:34.046Z,1.63
2018-08-24T15:28:03.609Z,1.50
2018-08-24T15:30:33.827Z,1.40
2018-08-24T15:33:03.479Z,1.27
2018-08-24T15:35:37.783Z,1.30
2018-08-24T15:38:07.926Z,1.53
2018-08-24T15:40:37.382Z,1.33
2018-08-24T15:43:06.909Z,1.37
2018-08-24T15:45:41.091Z,1.40
2018-08-24T15:48:10.708Z,1.87
2018-08-24T15:50:40.548Z,1.80
2018-08-24T15:53:11.254Z,1.53
2018-08-24T15:55:40.837Z,1.30
2018-08-24T15:58:10.846Z,1.60
2018-08-24T16:00:40.558Z,1.40
2018-08-24T16:03:10.241Z,1.60
2018-08-24T16:05:39.801Z,1.70
2018-08-24T16:08:09.769Z,2.20
2018-08-24T16:10:39.606Z,1.77
2018-08-24T16:13:09.602Z,1.57
2018-08-24T16:15:39.112Z,1.30
2018-08-24T16:18:13.867Z,1.30
2018-08-24T16:20:44.521Z,1.70
2018-08-24T16:23:13.949Z,1.30
2018-08-24T16:25:46.286Z,1.50
2018-08-24T16:28:15.947Z,1.57
2018-08-24T16:30:45.843Z,1.50
2018-08-24T16:33:16.330Z,1.63
2018-08-24T16:35:45.862Z,1.40
2018-08-24T16:38:17.020Z,1.40
2018-08-24T16:40:46.557Z,1.60
2018-08-24T16:43:16.477Z,1.70
2018-08-24T16:45:47.453Z,1.40
2018-08-24T16:48:17.250Z,1.60
2018-08-24T16:50:49.313Z,1.73
2018-08-24T16:53:24.110Z,2.13
2018-08-24T16:55:53.713Z,1.80
2018-08-24T16:58:24.166Z,1.40
2018-08-24T17:00:54.253Z,1.60
2018-08-24T17:03:24.910Z,1.43
2018-08-24T17:05:54.491Z,1.77
2018-08-24T17:08:25.808Z,2.10
2018-08-24T17:10:56.409Z,1.40
2018-08-24T17:13:26.271Z,1.47
2018-08-24T17:15:55.902Z,1.10
2018-08-24T17:18:25.570Z,1.20
2018-08-24T17:20:55.589Z,1.60
2018-08-24T17:23:25.184Z,1.40
2018-08-24T17:25:55.279Z,1.60
2018-08-24T17:28:24.802Z,1.23
2018-08-24T17:30:54.357Z,1.03
2018-08-24T17:33:23.999Z,1.70
2018-08-24T17:35:54.583Z,1.67
2018-08-24T17:38:24.108Z,1.97
2018-08-24T17:40:55.481Z,1.60
2018-08-24T17:43:25.082Z,1.70
2018-08-24T17:45:54.763Z,1.53
2018-08-24T17:48:24.235Z,1.37
2018-08-24T17:50:56.436Z,1.30
2018-08-24T17:53:27.277Z,1.37
2018-08-24T17:56:01.156Z,1.20
2018-08-24T17:58:31.147Z,5.37
2018-08-24T18:01:01.657Z,7.03
2018-08-24T18:03:31.202Z,3.27
2018-08-24T18:06:02.336Z,7.30
2018-08-24T18:08:32.589Z,3.50
2018-08-24T18:11:03.770Z,1.87
2018-08-24T18:13:34.360Z,1.83
2018-08-24T18:16:05.281Z,1.37
2018-08-24T18:18:37.091Z,1.30
2018-08-24T18:21:08.980Z,1.20
2018-08-24T18:23:39.324Z,1.03
2018-08-24T18:26:13.338Z,1.17
2018-08-24T18:28:44.301Z,1.37
2018-08-24T18:31:14.383Z,1.20
2018-08-24T18:33:44.081Z,1.10
2018-08-24T18:36:14.063Z,1.30
2018-08-24T18:38:43.531Z,1.60
2018-08-24T18:41:13.312Z,2.10
2018-08-24T18:43:43.845Z,1.40
2018-08-24T18:46:13.401Z,1.20
2018-08-24T18:48:43.763Z,1.47
2018-08-24T18:51:13.366Z,1.97
2018-08-24T18:53:43.824Z,1.03
2018-08-24T18:56:13.416Z,1.20
2018-08-24T18:58:43.132Z,2.30
2018-08-24T19:01:12.697Z,1.70
2018-08-24T19:03:42.355Z,2.30
2018-08-24T19:06:11.854Z,1.70
2018-08-24T19:08:41.402Z,1.67
2018-08-24T19:11:16.369Z,1.40
2018-08-24T19:13:46.315Z,1.87
2018-08-24T19:16:16.679Z,2.10
2018-08-24T19:18:51.511Z,2.20
2018-08-24T19:21:26.388Z,1.87
2018-08-24T19:23:55.868Z,1.30
2018-08-24T19:26:25.821Z,2.40
2018-08-24T19:30:03.831Z,1.50
2018-08-24T19:32:35.553Z,1.53
2018-08-24T19:35:05.462Z,1.77
2018-08-24T19:37:35.369Z,1.60
2018-08-24T19:40:10.059Z,2.10
2018-08-24T19:42:39.766Z,2.10
2018-08-24T19:45:10.178Z,2.10
2018-08-24T19:47:45.086Z,2.20
2018-08-24T19:50:16.892Z,2.00
2018-08-24T19:52:47.967Z,1.67
2018-08-24T19:55:17.529Z,2.00
2018-08-24T19:57:53.646Z,1.60
2018-08-24T20:00:24.138Z,1.40
2018-08-24T20:02:54.124Z,1.30
2018-08-24T20:05:25.181Z,1.93
2018-08-24T20:08:00.018Z,1.93
2018-08-24T20:10:29.671Z,1.40
2018-08-24T20:12:59.318Z,1.50
2018-08-24T20:15:34.608Z,1.83
2018-08-24T20:18:04.846Z,1.57
2018-08-24T20:20:36.147Z,1.57
2018-08-24T20:23:06.691Z,1.40
2018-08-24T20:25:36.699Z,1.90
2018-08-24T20:28:07.398Z,1.97
2018-08-24T20:30:38.133Z,1.63
2018-08-24T20:33:08.131Z,1.77
2018-08-24T20:35:38.260Z,1.57
2018-08-24T20:38:07.958Z,2.30
2018-08-24T20:40:38.538Z,1.30
2018-08-24T20:43:09.133Z,2.33
2018-08-24T20:45:38.840Z,1.90
2018-08-24T20:48:08.461Z,1.67
2018-08-24T20:50:38.225Z,1.40
2018-08-24T20:53:08.098Z,2.20
2018-08-24T20:55:37.843Z,2.40
2018-08-24T20:58:07.678Z,1.83
2018-08-24T21:00:38.351Z,2.60
2018-08-24T21:03:09.092Z,1.83
2018-08-24T21:05:40.338Z,2.03
2018-08-24T21:08:34.909Z,1.60
2018-08-24T21:11:06.612Z,1.97
2018-08-24T21:13:36.291Z,1.67
2018-08-24T21:16:07.126Z,1.93
2018-08-24T21:18:37.102Z,1.60
2018-08-24T21:21:06.917Z,1.50
2018-08-24T21:23:36.667Z,2.30
2018-08-24T21:26:06.428Z,1.90
2018-08-24T21:28:36.038Z,1.50
2018-08-24T21:31:06.725Z,2.10
2018-08-24T21:33:36.598Z,1.70
2018-08-24T21:36:07.750Z,2.07
2018-08-24T21:38:38.057Z,1.90
2018-08-24T21:41:07.802Z,1.63
2018-08-24T21:43:37.399Z,2.07
2018-08-24T21:46:07.333Z,1.80
2018-08-24T21:48:37.005Z,1.47
2018-08-24T21:51:06.641Z,1.77
2018-08-24T21:53:36.154Z,2.20
2018-08-24T21:59:02.821Z,1.77
2018-08-24T22:01:32.388Z,2.10
2018-08-24T22:04:02.598Z,2.10
2018-08-24T22:06:32.281Z,1.60
2018-08-24T22:09:02.037Z,1.87
2018-08-24T22:11:32.099Z,2.07
2018-08-24T22:14:01.717Z,1.50
2018-08-24T22:16:32.308Z,1.70
2018-08-24T22:19:02.866Z,1.70
2018-08-24T22:21:33.751Z,1.67
2018-08-24T22:24:04.414Z,1.53
2018-08-24T22:26:34.122Z,1.50
2018-08-24T22:29:04.417Z,1.63
2018-08-24T22:31:37.047Z,1.63
2018-08-24T22:34:07.699Z,2.10
2018-08-24T22:36:37.648Z,1.90
2018-08-24T22:39:10.125Z,2.03
2018-08-24T22:41:39.882Z,1.53
2018-08-24T22:44:10.604Z,1.97
2018-08-24T22:46:40.193Z,1.67
2018-08-24T22:49:10.100Z,1.70
2018-08-24T22:51:39.753Z,1.93
2018-08-24T22:54:09.345Z,1.90
2018-08-24T22:56:38.965Z,2.30
2018-08-24T22:59:09.082Z,2.17
2018-08-24T23:01:41.258Z,1.80
2018-08-24T23:04:11.030Z,2.30
2018-08-24T23:06:40.660Z,2.03
2018-08-24T23:09:15.410Z,1.80
2018-08-24T23:11:45.140Z,2.10
2018-08-24T23:14:16.840Z,2.10
2018-08-24T23:16:46.430Z,2.30
2018-08-24T23:19:16.211Z,2.60
2018-08-24T23:21:45.805Z,1.90
2018-08-24T23:24:15.677Z,2.80
2018-08-24T23:26:45.179Z,2.17
2018-08-24T23:29:14.878Z,2.37
2018-08-24T23:31:44.422Z,2.43
2018-08-24T23:34:15.622Z,2.33
2018-08-24T23:36:45.418Z,2.20
2018-08-24T23:39:15.049Z,2.23
2018-08-24T23:41:45.166Z,1.67
2018-08-24T23:44:15.036Z,1.90
2018-08-24T23:46:44.860Z,2.40
2018-08-24T23:49:14.630Z,2.50
2018-08-24T23:51:44.351Z,1.43
2018-08-24T23:54:13.975Z,1.60
2018-08-24T23:56:44.320Z,1.90
2018-08-24T23:59:15.046Z,2.00
